Etusivu
METAR-TAF:

METAR-TAF

Lentoasemat :

Lawrence Municipal Airport

Lawrence, Kansas, Yhdysvallat

Leveyspiiri: 39-00-30N, Pituuspiiri: 095-12-42W, korkeus merenpinnasta: 253 m

Tämänhetkinen sää

Tämä raportti tehtiin 43 minuuttia sitten, kello 07.52 UTC
Tuuli 10 kn pohjoisesta
Lämpötila -1°C
Kosteus 80%
Ilmanpaine 1024 hPa
Näkyvyys: 16.1 km
Pilvistä 1400 ft:n korkeudessa

METAR: KLWC 040752Z AUTO 01010KT 10SM OVC014 M01/M04 A3025 RMK AO2 SLP252 T10061039

Aika: 03:35 (08:35 UTC)


TAF: puuttuu

Säähavainnot ja -ennusteet yli 4000 lentoasemalta (METAR- ja TAF-raportit).

Käytössä olevat sääasemat on merkitty karttaan keltaisilla ja punaisilla pisteillä.

Aseta hiiri pisteen päälle nähdäksesi sääaseman nimen.

Klikkaa sitten nähdäksesi säähavainnot ja -ennusteet.

Kartan vaihtaminen: klikkaa mustalla rastilla varustettuja vihreitä pisteitä, niin voit zoomata sisään; viivalla varustettua vihreää pistettä, niin voit zoomata ulos tai vihreitä nuolia, niin pääset viereisille kartoille.


METAR-TAF: